Time;durP1;ratioP1;P1;durP2;ratioP2;P2;SDS_P1;SDS_P2;PMS_P1;PMS_P2;Temp;Humidity;BMP_temperature;BMP_pressure;BME280_temperature;BME280_humidity;BME280_pressure;Samples;Min_cycle;Max_cycle;Signal;HPM_P1;HPM_P2
2023/10/26 00:03:43;;;;;;;2.38;1.40;;;;;;;16.63;76.01;99208.44;20960944;28;20052;-72
2023/10/26 00:13:45;;;;;;;1.67;1.17;;;;;;;16.59;76.33;99196.34;20961635;28;20771;-72
2023/10/26 00:23:47;;;;;;;1.80;1.42;;;;;;;16.56;76.38;99204.75;20960991;28;20071;-72
2023/10/26 00:33:48;;;;;;;2.38;1.40;;;;;;;16.55;76.63;99205.75;20925368;28;1094455;-72
2023/10/26 00:43:51;;;;;;;1.42;1.30;;;;;;;16.52;76.72;99217.66;20962838;28;20055;-72
2023/10/26 00:53:53;;;;;;;2.13;1.40;;;;;;;16.50;76.71;99224.25;20961798;28;20550;-72
2023/10/26 01:03:55;;;;;;;1.73;1.50;;;;;;;16.51;76.91;99237.47;20960491;28;20041;-72
2023/10/26 01:13:58;;;;;;;2.38;2.03;;;;;;;16.49;76.90;99233.31;20959407;28;20097;-72
2023/10/26 01:24:00;;;;;;;3.10;2.10;;;;;;;16.47;76.77;99235.31;20958354;28;20051;-72
2023/10/26 01:34:02;;;;;;;2.75;2.10;;;;;;;16.50;76.83;99253.78;20959380;28;20149;-73
2023/10/26 01:44:05;;;;;;;2.60;2.00;;;;;;;16.51;76.76;99275.09;20940619;28;20476;-72
2023/10/26 01:54:07;;;;;;;2.85;1.70;;;;;;;16.52;76.61;99281.31;20958379;28;20056;-72
2023/10/26 02:04:12;;;;;;;2.93;2.27;;;;;;;16.54;76.42;99279.31;20958000;28;20052;-72
2023/10/26 02:14:14;;;;;;;3.25;2.50;;;;;;;16.48;76.47;99253.13;20956041;28;20044;-72
2023/10/26 02:24:15;;;;;;;2.33;1.88;;;;;;;16.55;76.26;99275.59;20957552;28;20053;-73
2023/10/26 02:34:17;;;;;;;3.03;2.03;;;;;;;16.56;76.45;99298.78;20955564;28;20601;-72
2023/10/26 02:44:19;;;;;;;2.20;2.00;;;;;;;16.55;76.27;99294.41;20954218;28;20068;-72
2023/10/26 02:54:21;;;;;;;2.65;2.45;;;;;;;16.46;76.21;99282.81;20954438;28;20052;-72
2023/10/26 03:04:23;;;;;;;2.40;2.15;;;;;;;16.58;76.14;99306.69;20970824;28;20052;-72
2023/10/26 03:14:24;;;;;;;3.55;2.65;;;;;;;16.56;76.19;99306.84;20964969;28;20041;-72
2023/10/26 03:24:26;;;;;;;3.58;2.60;;;;;;;16.56;76.18;99305.97;20969774;28;20048;-72
2023/10/26 03:34:28;;;;;;;3.53;2.67;;;;;;;16.56;76.07;99300.63;20969023;28;20057;-71
2023/10/26 03:44:30;;;;;;;2.45;2.25;;;;;;;16.54;76.01;99290.06;20968389;28;20048;-72
2023/10/26 03:54:33;;;;;;;2.78;2.30;;;;;;;16.54;76.12;99292.72;20967333;28;20048;-72
2023/10/26 04:04:34;;;;;;;2.65;2.20;;;;;;;16.54;75.97;99311.53;20966919;28;20856;-71
2023/10/26 04:14:36;;;;;;;2.88;2.58;;;;;;;16.55;76.12;99317.75;20966687;28;20088;-72
2023/10/26 04:24:38;;;;;;;2.42;2.20;;;;;;;16.53;75.92;99309.84;20964149;28;20059;-73
2023/10/26 04:34:43;;;;;;;3.80;3.20;;;;;;;16.53;76.00;99301.81;20964302;28;20566;-73
2023/10/26 04:44:46;;;;;;;2.55;2.35;;;;;;;16.52;76.05;99292.06;20963459;28;20056;-73
2023/10/26 04:54:48;;;;;;;2.55;2.35;;;;;;;16.53;75.95;99293.75;20961210;28;20048;-72
2023/10/26 05:04:49;;;;;;;2.85;2.65;;;;;;;16.52;76.01;99298.25;20962061;28;20052;-73
2023/10/26 05:14:51;;;;;;;3.13;2.47;;;;;;;16.51;75.88;99280.47;20959359;28;20052;-72
2023/10/26 05:24:53;;;;;;;5.68;3.53;;;;;;;16.48;76.03;99291.53;20960695;28;20048;-72
2023/10/26 05:34:55;;;;;;;4.45;3.80;;;;;;;16.46;76.21;99285.50;20958793;28;20106;-72
2023/10/26 05:44:57;;;;;;;3.33;3.03;;;;;;;16.43;75.94;99260.84;20958657;28;20045;-72
2023/10/26 05:54:58;;;;;;;3.80;3.40;;;;;;;16.42;76.03;99281.47;20958871;28;20063;-72
2023/10/26 06:05:00;;;;;;;3.10;2.90;;;;;;;16.41;75.93;99282.47;20958358;28;20113;-72
2023/10/26 06:15:02;;;;;;;3.08;2.72;;;;;;;16.40;75.81;99294.22;20957740;28;20764;-73
2023/10/26 06:25:05;;;;;;;3.30;3.00;;;;;;;16.41;75.78;99290.53;20956073;28;20127;-72
2023/10/26 06:35:07;;;;;;;3.42;2.45;;;;;;;16.41;75.77;99300.44;20956691;28;20071;-72
2023/10/26 06:45:09;;;;;;;2.80;2.60;;;;;;;16.42;75.43;99307.50;20959340;28;20118;-72
2023/10/26 06:55:14;;;;;;;2.83;2.55;;;;;;;16.43;75.41;99304.63;20972388;28;20040;-72
2023/10/26 07:05:20;;;;;;;3.03;2.70;;;;;;;16.46;75.20;99316.91;20971726;28;20045;-72
2023/10/26 07:15:22;;;;;;;3.13;2.88;;;;;;;16.47;75.22;99310.53;20970738;28;20052;-72
2023/10/26 07:25:23;;;;;;;2.13;1.92;;;;;;;16.51;75.09;99311.88;20969652;28;20048;-72
2023/10/26 07:35:25;;;;;;;3.08;2.55;;;;;;;16.55;74.89;99307.84;20969193;28;20888;-72
2023/10/26 07:45:27;;;;;;;3.15;2.67;;;;;;;16.57;74.67;99303.16;20966161;28;20126;-72
2023/10/26 07:55:29;;;;;;;3.17;2.88;;;;;;;16.58;74.80;99304.00;20967415;28;20053;-73
2023/10/26 08:05:31;;;;;;;3.13;2.83;;;;;;;16.59;74.78;99300.31;20965427;28;20428;-72
2023/10/26 08:15:34;;;;;;;3.55;2.92;;;;;;;16.61;74.81;99317.09;20966330;28;20048;-72
2023/10/26 08:25:56;;;;;;;3.53;3.17;;;;;;;16.63;75.04;99320.47;20965254;28;20076;-72
2023/10/26 08:35:58;;;;;;;3.28;2.38;;;;;;;16.63;74.96;99326.66;20965103;28;20044;-72
2023/10/26 08:46:00;;;;;;;3.63;3.30;;;;;;;16.65;75.01;99348.81;20963022;28;20382;-73
2023/10/26 08:56:02;;;;;;;3.20;2.90;;;;;;;16.67;75.09;99349.50;20961112;28;20044;-72
2023/10/26 09:06:04;;;;;;;3.20;2.90;;;;;;;16.70;74.99;99360.91;20961352;28;20053;-73
2023/10/26 09:16:06;;;;;;;3.35;3.05;;;;;;;16.70;75.14;99352.84;20961125;28;20097;-72
2023/10/26 09:26:09;;;;;;;3.35;2.42;;;;;;;16.80;74.88;99340.94;20959852;28;20098;-72
2023/10/26 09:36:13;;;;;;;2.60;2.40;;;;;;;16.86;74.45;99330.53;20959903;28;20093;-72
2023/10/26 09:46:17;;;;;;;2.58;2.33;;;;;;;17.06;74.09;99355.25;20958455;28;20048;-72
2023/10/26 09:56:23;;;;;;;2.50;2.30;;;;;;;17.11;73.80;99369.03;20959190;28;20037;-72
2023/10/26 10:06:44;;;;;;;2.80;2.50;;;;;;;17.17;73.59;99370.22;20875687;28;20044;-72
2023/10/26 10:16:46;;;;;;;3.20;2.90;;;;;;;17.18;73.35;99375.41;20875649;28;20133;-73
2023/10/26 10:27:10;;;;;;;2.67;2.47;;;;;;;17.18;73.37;99380.78;20890785;28;20045;-72
2023/10/26 10:37:12;;;;;;;2.85;2.58;;;;;;;17.22;73.39;99368.69;20891735;28;20055;-72
2023/10/26 10:47:14;;;;;;;3.30;2.83;;;;;;;17.36;73.29;99353.72;20971613;28;20133;-73
2023/10/26 10:57:16;;;;;;;3.65;3.30;;;;;;;17.65;72.62;99341.53;20972010;28;20044;-73
2023/10/26 11:07:26;;;;;;;3.03;2.60;;;;;;;17.82;72.12;99336.09;20969778;28;20040;-73
2023/10/26 11:17:29;;;;;;;3.20;2.60;;;;;;;17.93;71.68;99342.97;20971189;28;20102;-73
2023/10/26 11:27:36;;;;;;;3.50;2.88;;;;;;;18.00;71.55;99322.41;20969959;28;20578;-73
2023/10/26 11:37:48;;;;;;;3.08;2.47;;;;;;;18.09;71.25;99317.84;20968513;28;20128;-73
2023/10/26 11:47:53;;;;;;;3.13;2.65;;;;;;;18.07;71.19;99309.94;20968279;28;20045;-73
2023/10/26 11:57:56;;;;;;;3.50;2.38;;;;;;;18.14;71.12;99312.78;20968545;28;20127;-73
2023/10/26 12:07:58;;;;;;;3.03;2.58;;;;;;;18.23;71.00;99305.50;20966832;28;20045;-73
2023/10/26 12:18:00;;;;;;;2.63;2.40;;;;;;;18.25;70.85;99308.84;20966311;28;20048;-73
2023/10/26 12:28:02;;;;;;;2.83;2.35;;;;;;;18.18;70.88;99318.66;20964948;28;20047;-72
2023/10/26 12:38:23;;;;;;;2.40;2.20;;;;;;;18.17;70.89;99311.59;20964909;28;20060;-72
2023/10/26 12:48:25;;;;;;;2.00;1.70;;;;;;;18.09;70.96;99305.22;20961831;28;20052;-72
2023/10/26 12:58:27;;;;;;;2.85;2.40;;;;;;;18.05;70.97;99293.13;20962601;28;20047;-73
2023/10/26 13:08:29;;;;;;;2.22;2.00;;;;;;;18.02;70.97;99276.50;20962097;28;20048;-72
2023/10/26 13:18:30;;;;;;;2.30;2.10;;;;;;;17.98;71.06;99265.19;20961302;28;20054;-72
2023/10/26 13:28:32;;;;;;;2.92;2.60;;;;;;;17.91;71.18;99254.31;20960011;28;20539;-73
2023/10/26 13:38:34;;;;;;;2.50;2.30;;;;;;;17.86;71.36;99253.16;20959948;28;20515;-73
2023/10/26 13:48:36;;;;;;;2.92;2.63;;;;;;;17.84;71.73;99261.38;20940760;28;20052;-72
2023/10/26 13:58:38;;;;;;;2.60;2.40;;;;;;;17.73;71.69;99246.50;20958453;28;20056;-73
2023/10/26 14:08:39;;;;;;;2.60;2.40;;;;;;;17.74;71.92;99248.16;20958166;28;20055;-72
2023/10/26 14:18:41;;;;;;;2.83;2.53;;;;;;;17.69;71.93;99240.59;20956143;28;20075;-72
2023/10/26 14:28:43;;;;;;;2.70;2.47;;;;;;;17.63;72.09;99235.06;20956924;28;20102;-72
2023/10/26 14:38:49;;;;;;;3.20;2.80;;;;;;;17.58;72.46;99232.06;20957129;28;20063;-72
2023/10/26 14:48:51;;;;;;;2.83;2.60;;;;;;;17.53;72.51;99228.06;20955838;28;20044;-72
2023/10/26 14:58:54;;;;;;;3.35;3.05;;;;;;;17.51;72.77;99232.78;20956356;28;20519;-72
2023/10/26 15:08:56;;;;;;;2.95;2.75;;;;;;;17.47;72.83;99218.00;20961807;28;20048;-72
2023/10/26 15:18:58;;;;;;;3.13;2.83;;;;;;;17.46;72.95;99228.97;20969145;28;20040;-72
2023/10/26 15:29:00;;;;;;;2.72;2.53;;;;;;;17.43;73.26;99224.75;20967842;28;20044;-72
2023/10/26 15:39:02;;;;;;;3.05;2.80;;;;;;;17.39;73.37;99213.47;20969061;28;20048;-72
2023/10/26 15:49:06;;;;;;;2.88;2.67;;;;;;;17.37;73.52;99210.13;20966478;28;20045;-72
2023/10/26 15:59:28;;;;;;;3.70;3.28;;;;;;;17.30;73.51;99197.56;20967958;28;20079;-72
2023/10/26 16:09:31;;;;;;;3.78;2.65;;;;;;;17.17;73.85;99207.00;20965405;28;20185;-72
2023/10/26 16:19:37;;;;;;;2.65;2.45;;;;;;;17.05;73.97;99190.44;20966619;28;20048;-73
2023/10/26 16:29:39;;;;;;;3.47;2.55;;;;;;;16.99;74.06;99188.41;20964910;28;20049;-72
2023/10/26 16:39:41;;;;;;;3.15;2.85;;;;;;;17.01;74.03;99188.25;20962837;28;20048;-72
2023/10/26 16:49:42;;;;;;;2.95;2.60;;;;;;;16.99;73.85;99188.41;20963268;28;20046;-72
2023/10/26 16:59:46;;;;;;;2.83;2.58;;;;;;;16.93;73.92;99197.97;20962644;28;20133;-72
2023/10/26 17:09:48;;;;;;;3.20;2.60;;;;;;;16.92;73.93;99200.84;20961958;28;20048;-73
2023/10/26 17:19:50;;;;;;;3.30;2.80;;;;;;;16.89;74.14;99201.16;20960968;28;20044;-72
2023/10/26 17:29:52;;;;;;;3.15;2.85;;;;;;;16.87;73.63;99198.66;20959786;28;20044;-72
2023/10/26 17:39:54;;;;;;;3.20;2.83;;;;;;;16.88;73.87;99200.34;20959768;28;20119;-72
2023/10/26 17:49:56;;;;;;;3.35;2.33;;;;;;;16.91;73.86;99202.69;20958619;28;20133;-72
2023/10/26 17:59:57;;;;;;;2.60;2.40;;;;;;;16.92;73.86;99217.81;20957565;28;20838;-72
2023/10/26 18:09:59;;;;;;;2.65;2.45;;;;;;;16.90;73.74;99209.09;20958108;28;20505;-72
2023/10/26 18:20:01;;;;;;;3.17;2.40;;;;;;;16.89;73.75;99212.78;20957844;28;20072;-72
2023/10/26 18:30:04;;;;;;;3.58;3.03;;;;;;;16.88;73.86;99207.56;20957313;28;20148;-72
2023/10/26 18:40:07;;;;;;;2.90;2.70;;;;;;;16.86;73.80;99207.75;20957041;28;20507;-72
2023/10/26 18:50:10;;;;;;;2.70;2.50;;;;;;;16.84;73.70;99199.03;20972398;28;20484;-72
2023/10/26 19:00:12;;;;;;;3.05;2.63;;;;;;;16.84;73.88;99198.16;20971002;28;20044;-72
2023/10/26 19:10:14;;;;;;;2.50;2.30;;;;;;;16.81;73.89;99188.63;20971356;28;20052;-72
2023/10/26 19:20:17;;;;;;;2.72;2.53;;;;;;;16.81;73.98;99202.06;20970538;28;20117;-72
2023/10/26 19:30:24;;;;;;;3.05;2.75;;;;;;;16.76;73.85;99191.81;20969818;28;20044;-72
2023/10/26 19:40:26;;;;;;;3.10;2.80;;;;;;;16.77;73.89;99187.25;20969603;28;20052;-72
2023/10/26 19:50:27;;;;;;;2.50;2.30;;;;;;;16.78;73.92;99181.72;20965521;28;20488;-73
2023/10/26 20:00:33;;;;;;;3.33;2.90;;;;;;;16.78;73.91;99183.56;20968162;28;20057;-72
2023/10/26 20:10:35;;;;;;;3.35;2.60;;;;;;;16.76;73.90;99174.81;20967161;28;20482;-73
2023/10/26 20:20:36;;;;;;;2.85;2.55;;;;;;;16.73;73.78;99180.53;20965954;28;20110;-72
2023/10/26 20:30:38;;;;;;;2.38;2.17;;;;;;;16.75;73.78;99173.16;20965115;28;20109;-72
2023/10/26 20:40:40;;;;;;;2.78;2.55;;;;;;;16.72;73.80;99152.84;20964469;28;20103;-72
2023/10/26 20:50:41;;;;;;;3.10;2.80;;;;;;;16.72;73.95;99155.53;20963501;28;20052;-73
2023/10/26 21:00:43;;;;;;;3.45;2.53;;;;;;;16.71;74.03;99150.31;20962520;28;20040;-72
2023/10/26 21:10:45;;;;;;;3.25;2.60;;;;;;;16.71;74.13;99136.88;20961246;28;20071;-72
2023/10/26 21:20:47;;;;;;;3.75;3.40;;;;;;;16.66;74.26;99127.50;20961431;28;20510;-72
2023/10/26 21:30:49;;;;;;;4.30;3.90;;;;;;;16.62;74.43;99123.47;20959998;28;20049;-72
2023/10/26 21:40:51;;;;;;;3.90;3.50;;;;;;;16.58;74.56;99106.03;20959828;28;20072;-72
2023/10/26 21:50:52;;;;;;;5.30;3.88;;;;;;;16.56;74.74;99126.00;20959408;28;20048;-72
2023/10/26 22:00:54;;;;;;;5.85;4.55;;;;;;;16.47;74.70;99139.44;20958744;28;20053;-72
2023/10/26 22:10:56;;;;;;;4.30;3.67;;;;;;;16.52;74.73;99133.56;20958055;28;20055;-70
2023/10/26 22:21:02;;;;;;;4.00;3.60;;;;;;;16.49;74.62;99113.25;20958379;28;20059;-72
2023/10/26 22:31:04;;;;;;;4.35;3.95;;;;;;;16.49;74.69;99109.75;20957203;28;20044;-73
2023/10/26 22:41:10;;;;;;;4.05;3.65;;;;;;;16.48;74.53;99110.75;20956496;28;20137;-72
2023/10/26 22:51:12;;;;;;;4.30;3.90;;;;;;;16.50;74.64;99101.50;20957226;28;20045;-72
2023/10/26 23:01:13;;;;;;;3.97;3.50;;;;;;;16.54;74.40;99102.00;20956432;28;20059;-72
2023/10/26 23:11:15;;;;;;;3.55;3.20;;;;;;;16.54;74.42;99091.25;20955957;28;20145;-72
2023/10/26 23:21:17;;;;;;;3.40;3.10;;;;;;;16.55;74.30;99102.81;20955474;28;20044;-72
2023/10/26 23:31:19;;;;;;;2.75;2.47;;;;;;;16.56;74.24;99093.75;20962421;28;20074;-72
2023/10/26 23:41:21;;;;;;;3.17;2.58;;;;;;;16.56;74.20;99067.75;20968832;28;20052;-72
2023/10/26 23:51:23;;;;;;;4.20;3.00;;;;;;;16.55;74.24;99057.16;20968616;28;20059;-72
